LJMBLIBD [OS9837]

Guest
Details From LJMB - Maribor
To LIBD - Bari Palese Macchie
Flight Number OS9837
Tags Real Decoded Commercial
Created
Modified
Stats Distance 617 nm / 1,142 km
Max Altitude 0 ft / 0 m
Waypoints 12
Social Downloads 1
Likes 0
Share VATSIM

Download

Looking for another format? Having issues loading an existing format? Contact us
Advertisement - Login to hide

Notes

Decoded

Route

GOLVA MIRSO PETOV ZAG RUDIK MONID SUDIM NENAD SIRMI SPL AIOSA BANAV

ID Type Via Altitude Latitude Longitude Leg Dist Tot Dist Heading (true) Name
O GOLVA FIX - 0 ft / 0 m 46.70792˚ 15.65145˚ - 0 nm - -
MIRSO FIX - 0 ft / 0 m 46.47599˚ 15.84198˚ 15 nm 15 nm 150° / 151° -
PETOV FIX - 0 ft / 0 m 46.30967˚ 15.97617˚ 11 nm 27 nm 151° / 151° -
ZAG VOR - 0 ft / 0 m 45.89556˚ 16.30670˚ 28 nm 55 nm 151° / 151° ZAGREB VOR-DME
RUDIK FIX - 0 ft / 0 m 44.99667˚ 16.30500˚ 53 nm 109 nm 180° / 180° -
MONID FIX - 0 ft / 0 m 44.96750˚ 16.30583˚ 1 nm 111 nm 179° / 179° -
SUDIM FIX - 0 ft / 0 m 44.66722˚ 16.30556˚ 18 nm 129 nm 180° / 180° -
NENAD FIX - 0 ft / 0 m 44.52569˚ 20.11931˚ 163 nm 292 nm 92° / 94° -
SIRMI FIX - 0 ft / 0 m 44.15000˚ 16.30361˚ 165 nm 458 nm 263° / 261° -
SPL VOR - 0 ft / 0 m 43.49658˚ 16.30472˚ 39 nm 497 nm 180° / 180° SPLIT VOR-DME
AIOSA FIX - 0 ft / 0 m 41.92833˚ 17.24833˚ 102 nm 600 nm 156° / 156° -
O BANAV FIX - 0 ft / 0 m 41.72861˚ 17.01111˚ 16 nm 616 nm 222° / 221° -

Altitude Profile

Advertisement - Login to hide

Weather


0- 5 10 15 20 25 30 35+ Temperature / ° C

Clouds and Precipitation
Forecast for 2017-12-14 06:00 UTC. Updated an hour ago

Ground ~20,000 ft ~40,000 ft Winds

LJMB

Details ICAO LJMB (MBX)
Name MARIBOR
Region Slovenia
Timezone Europe/Ljubljana (UTC+1.0)
Stats Elevation 876 ft / 267 m (AMSL)
Location 46.480625° 15.686020°
Runways 2
Magnetic Variation 3.936° E

METAR

LJMB 140630Z 22012KT 190V250 9999 FEW039 BKN200 06/01 Q1003

Decode

TAF

TAF LJMB 140200Z 1403/1503 19005KT 9999 SCT035 BECMG 1403/1406 20015KT TEMPO 1406/1411 23020G40KT TEMPO 1403/1503 BKN035 BECMG 1412/1415 36004KT BECMG 1421/1423 20015KT TEMPO 1422/1503 20020G40KT

Decode

Departure Runways

ID Width Length Bearing (true) Bearing (mag) Surface Threshold Offset Overrun Length
15 148 ft / 45 m 8,160 ft / 2,487 m 146.19° 142.25° Asphalt 0 ft / 0 m 0 ft / 0 m
15L 197 ft / 60 m 3,941 ft / 1,201 m 146.13° 142.19° Grass 0 ft / 0 m 0 ft / 0 m
33 148 ft / 45 m 8,160 ft / 2,487 m 326.20° 322.26° Asphalt 0 ft / 0 m 0 ft / 0 m
33R 197 ft / 60 m 3,941 ft / 1,201 m 326.14° 322.20° Grass 0 ft / 0 m 0 ft / 0 m

LIBD

Details ICAO LIBD (BRI)
Name Bari Palese Macchie
Region Italy
Timezone Europe/Rome (UTC+1.0)
Stats Elevation 177 ft / 54 m (AMSL)
Location 41.137865° 16.758318°
Runways 1
Magnetic Variation 3.737° E

METAR

LIBD 140620Z 23006KT CAVOK 08/03 Q1016

Decode

TAF

TAF LIBD 140500Z 1406/1506 22015KT 9999 SCT030= TAF LIBP 140500Z 1406/1506 22018G28KT 9999 SCT020 BECMG 1410/1412 22015KT BECMG 1422/1424 22018G30KT

Decode

Destination Runways

ID Width Length Bearing (true) Bearing (mag) Surface Threshold Offset Overrun Length
07 148 ft / 45 m 9,262 ft / 2,823 m 69.39° 65.65° Asphalt 1,257 ft / 383 m 0 ft / 0 m
25 148 ft / 45 m 9,262 ft / 2,823 m 249.42° 245.68° Asphalt 0 ft / 0 m 194 ft / 59 m

Approach Navaids

Runway Type Ident Frequency Range Bearing (true) Bearing (mag) Slope Elevation
07 Localiser BAP 111.35 MHz 18 nm / 33 km 69.25° 65.51° - 177 ft / 54 m (AMSL)
07 Glidescope BAP 111.35 MHz 10 nm / 19 km 69.25° 65.51° 3.32° 177 ft / 54 m (AMSL)
07 DME BAP 111.35 MHz 18 nm / 33 km - - - 183 ft / 56 m (AMSL)

Popular Alternatives